createdAt,value
2019-05-15T00:00:34.977Z,9.42
2019-05-15T00:01:34.928Z,9.47
2019-05-15T00:02:34.870Z,9.47
2019-05-15T00:03:34.816Z,9.46
2019-05-15T00:04:34.789Z,9.42
2019-05-15T00:05:34.718Z,9.43
2019-05-15T00:06:34.670Z,9.42
2019-05-15T00:07:34.606Z,9.42
2019-05-15T00:08:34.554Z,9.28
2019-05-15T00:09:34.523Z,9.29
2019-05-15T00:10:34.448Z,9.34
2019-05-15T00:11:34.393Z,9.29
2019-05-15T00:12:34.347Z,9.22
2019-05-15T00:13:34.302Z,9.24
2019-05-15T00:14:34.264Z,9.18
2019-05-15T00:15:34.179Z,9.21
2019-05-15T00:16:34.127Z,9.16
2019-05-15T00:17:34.072Z,9.21
2019-05-15T00:18:34.021Z,9.16
2019-05-15T00:19:33.993Z,9.21
2019-05-15T00:20:33.911Z,9.15
2019-05-15T00:21:33.861Z,9.11
2019-05-15T00:22:33.810Z,9.18
2019-05-15T00:23:33.754Z,9.11
2019-05-15T00:24:33.725Z,9.16
2019-05-15T00:25:33.646Z,9.15
2019-05-15T00:26:33.593Z,9.11
2019-05-15T00:27:33.546Z,9.06
2019-05-15T00:28:33.487Z,9.05
2019-05-15T00:29:33.459Z,9.16
2019-05-15T00:30:33.379Z,9.06
2019-05-15T00:31:33.328Z,9.11
2019-05-15T00:32:33.273Z,9.16
2019-05-15T00:33:33.221Z,9.11
2019-05-15T00:34:33.211Z,9.10
2019-05-15T00:35:33.114Z,9.03
2019-05-15T00:36:33.059Z,9.03
2019-05-15T00:37:33.012Z,9.14
2019-05-15T00:38:32.950Z,9.06
2019-05-15T00:39:32.903Z,9.14
2019-05-15T00:40:32.872Z,9.06
2019-05-15T00:41:32.798Z,9.00
2019-05-15T00:42:32.739Z,9.03
2019-05-15T00:43:32.691Z,9.00
2019-05-15T00:44:32.648Z,9.02
2019-05-15T00:45:32.604Z,8.98
2019-05-15T00:46:32.529Z,8.99
2019-05-15T00:47:32.474Z,9.00
2019-05-15T00:48:32.431Z,8.98
2019-05-15T00:49:32.367Z,8.91
2019-05-15T00:50:32.340Z,8.81
2019-05-15T00:51:32.275Z,8.95
2019-05-15T00:52:32.206Z,8.91
2019-05-15T00:53:32.153Z,8.87
2019-05-15T00:54:32.098Z,8.85
2019-05-15T00:55:32.066Z,8.84
2019-05-15T00:56:31.997Z,8.81
2019-05-15T00:57:31.937Z,8.80
2019-05-15T00:58:31.885Z,8.77
2019-05-15T00:59:31.834Z,8.85
2019-05-15T01:00:31.802Z,8.78
2019-05-15T01:01:31.728Z,8.77
2019-05-15T01:02:39.385Z,8.70
2019-05-15T01:03:31.620Z,8.78
2019-05-15T01:04:31.565Z,8.73
2019-05-15T01:05:31.541Z,8.72
2019-05-15T01:06:31.473Z,8.73
2019-05-15T01:07:31.405Z,8.66
2019-05-15T01:08:31.402Z,8.67
2019-05-15T01:09:31.299Z,8.67
2019-05-15T01:10:31.269Z,8.60
2019-05-15T01:11:31.189Z,8.63
2019-05-15T01:12:31.138Z,8.60
2019-05-15T01:13:31.085Z,8.69
2019-05-15T01:14:31.038Z,8.62
2019-05-15T01:15:31.004Z,8.67
2019-05-15T01:16:30.925Z,8.64
2019-05-15T01:17:30.869Z,8.64
2019-05-15T01:18:30.820Z,8.59
2019-05-15T01:19:30.762Z,8.55
2019-05-15T01:20:30.734Z,8.62
2019-05-15T01:21:30.658Z,8.57
2019-05-15T01:22:30.601Z,8.59
2019-05-15T01:23:30.549Z,8.59
2019-05-15T01:24:30.498Z,8.39
2019-05-15T01:25:30.465Z,8.48
2019-05-15T01:26:30.387Z,8.45
2019-05-15T01:27:30.335Z,8.45
2019-05-15T01:28:30.281Z,8.42
2019-05-15T01:29:40.539Z,8.45
2019-05-15T01:30:30.193Z,8.41
2019-05-15T01:31:30.119Z,8.44
2019-05-15T01:32:30.063Z,8.47
2019-05-15T01:33:30.014Z,8.41
2019-05-15T01:34:29.953Z,8.39
2019-05-15T01:35:29.934Z,8.42
2019-05-15T01:36:29.851Z,8.45
2019-05-15T01:37:29.797Z,8.57
2019-05-15T01:38:29.742Z,8.52
2019-05-15T01:39:29.686Z,8.45
2019-05-15T01:40:29.672Z,8.45
2019-05-15T01:41:29.584Z,8.41
2019-05-15T01:42:29.529Z,8.42
2019-05-15T01:43:29.480Z,8.52
2019-05-15T01:44:29.417Z,8.41
2019-05-15T01:45:29.391Z,8.42
2019-05-15T01:46:29.311Z,8.42
2019-05-15T01:47:29.260Z,8.39
2019-05-15T01:48:29.207Z,8.30
2019-05-15T01:49:29.156Z,8.34
2019-05-15T01:50:29.265Z,8.38
2019-05-15T01:51:29.042Z,8.30
2019-05-15T01:52:28.998Z,8.38
2019-05-15T01:53:29.177Z,8.30
2019-05-15T01:54:29.076Z,8.31
2019-05-15T01:55:28.852Z,8.36
2019-05-15T01:56:29.338Z,8.36
2019-05-15T01:57:28.858Z,8.34
2019-05-15T01:58:28.876Z,8.23
2019-05-15T01:59:28.610Z,8.30
2019-05-15T02:00:28.613Z,8.23
2019-05-15T02:01:28.535Z,8.15
2019-05-15T02:02:28.453Z,8.21
2019-05-15T02:03:29.026Z,8.18
2019-05-15T02:04:28.965Z,8.20
2019-05-15T02:05:28.407Z,8.23
2019-05-15T02:06:28.605Z,8.24
2019-05-15T02:07:28.186Z,8.18
2019-05-15T02:08:28.622Z,8.24
2019-05-15T02:09:28.147Z,8.24
2019-05-15T02:10:29.188Z,8.21
2019-05-15T02:11:28.867Z,8.09
2019-05-15T02:12:28.570Z,8.21
2019-05-15T02:13:28.346Z,8.13
2019-05-15T02:14:28.466Z,8.09
2019-05-15T02:15:28.512Z,8.09
2019-05-15T02:16:28.639Z,8.11
2019-05-15T02:17:28.304Z,8.08
2019-05-15T02:18:28.588Z,8.08
2019-05-15T02:19:28.751Z,8.11
2019-05-15T02:20:29.167Z,8.13
2019-05-15T02:21:28.810Z,8.11
2019-05-15T02:22:28.302Z,8.11
2019-05-15T02:23:28.077Z,8.11
2019-05-15T02:24:28.423Z,8.11
2019-05-15T02:25:28.062Z,8.06
2019-05-15T02:26:28.196Z,8.01
2019-05-15T02:27:28.832Z,8.02
2019-05-15T02:28:28.888Z,8.04
2019-05-15T02:29:28.596Z,7.98
2019-05-15T02:30:30.245Z,7.94
2019-05-15T02:31:29.827Z,7.97
2019-05-15T02:32:29.911Z,7.93
2019-05-15T02:33:29.801Z,7.97
2019-05-15T02:34:29.892Z,8.01
2019-05-15T02:35:29.425Z,7.97
2019-05-15T02:36:29.375Z,7.88
2019-05-15T02:37:29.357Z,7.86
2019-05-15T02:38:29.576Z,7.91
2019-05-15T02:39:28.967Z,7.86
2019-05-15T02:40:29.188Z,7.83
2019-05-15T02:41:29.593Z,7.80
2019-05-15T02:42:28.917Z,7.76
2019-05-15T02:43:29.525Z,7.79
2019-05-15T02:44:28.914Z,7.78
2019-05-15T02:45:26.132Z,7.73
2019-05-15T02:46:26.100Z,7.68
2019-05-15T02:47:28.893Z,7.68
2019-05-15T02:48:28.689Z,7.69
2019-05-15T02:49:25.915Z,7.70
2019-05-15T02:50:28.887Z,7.70
2019-05-15T02:51:25.823Z,7.72
2019-05-15T02:52:25.760Z,7.59
2019-05-15T02:53:25.692Z,7.59
2019-05-15T02:54:25.650Z,7.57
2019-05-15T02:55:25.588Z,7.57
2019-05-15T02:56:25.555Z,7.49
2019-05-15T02:57:25.474Z,7.44
2019-05-15T02:58:25.426Z,7.50
2019-05-15T02:59:28.840Z,7.59
2019-05-15T03:00:37.992Z,7.54
2019-05-15T03:01:25.289Z,7.62
2019-05-15T03:02:25.205Z,7.62
2019-05-15T03:03:25.158Z,7.72
2019-05-15T03:04:25.099Z,7.75
2019-05-15T03:05:25.043Z,7.70
2019-05-15T03:06:25.017Z,7.60
2019-05-15T03:07:24.935Z,7.73
2019-05-15T03:08:24.899Z,7.73
2019-05-15T03:09:24.826Z,7.75
2019-05-15T03:10:24.776Z,7.70
2019-05-15T03:11:24.752Z,7.75
2019-05-15T03:12:24.666Z,7.86
2019-05-15T03:13:24.616Z,7.72
2019-05-15T03:14:24.554Z,7.73
2019-05-15T03:15:24.502Z,7.75
2019-05-15T03:16:24.470Z,7.79
2019-05-15T03:17:24.390Z,7.66
2019-05-15T03:18:24.336Z,7.62
2019-05-15T03:19:24.295Z,7.68
2019-05-15T03:20:24.305Z,7.59
2019-05-15T03:21:24.219Z,7.66
2019-05-15T03:22:24.121Z,7.57
2019-05-15T03:23:24.075Z,7.72
2019-05-15T03:24:24.012Z,7.69
2019-05-15T03:25:23.962Z,7.73
2019-05-15T03:26:23.906Z,7.68
2019-05-15T03:27:23.875Z,7.75
2019-05-15T03:28:23.792Z,7.76
2019-05-15T03:29:23.738Z,7.72
2019-05-15T03:30:23.690Z,7.73
2019-05-15T03:31:43.593Z,7.76
2019-05-15T03:32:34.176Z,7.72
2019-05-15T03:33:27.943Z,7.76
2019-05-15T03:34:30.946Z,7.68
2019-05-15T03:35:23.612Z,7.80
2019-05-15T03:36:24.533Z,7.69
2019-05-15T03:37:23.345Z,7.75
2019-05-15T03:38:23.259Z,7.69
2019-05-15T03:39:23.198Z,7.70
2019-05-15T03:40:23.153Z,7.70
2019-05-15T03:41:23.085Z,7.72
2019-05-15T03:42:23.064Z,7.70
2019-05-15T03:43:22.992Z,7.70
2019-05-15T03:44:22.937Z,7.72
2019-05-15T03:45:22.873Z,7.69
2019-05-15T03:46:22.818Z,7.70
2019-05-15T03:47:22.786Z,7.78
2019-05-15T03:48:22.707Z,7.69
2019-05-15T03:49:22.656Z,7.75
2019-05-15T03:50:22.602Z,7.75
2019-05-15T03:51:22.540Z,7.75
2019-05-15T03:52:22.514Z,7.73
2019-05-15T03:53:22.435Z,7.91
2019-05-15T03:54:22.383Z,7.84
2019-05-15T03:55:22.328Z,7.88
2019-05-15T03:56:22.277Z,7.79
2019-05-15T03:57:23.323Z,7.87
2019-05-15T03:58:22.170Z,7.84
2019-05-15T03:59:22.108Z,7.79
2019-05-15T04:00:22.070Z,7.73
2019-05-15T04:01:34.083Z,7.79
2019-05-15T04:02:21.969Z,7.91
2019-05-15T04:03:21.891Z,7.83
2019-05-15T04:04:21.840Z,7.79
2019-05-15T04:05:21.785Z,7.78
2019-05-15T04:06:21.742Z,7.84
2019-05-15T04:07:21.698Z,7.80
2019-05-15T04:08:21.626Z,7.87
2019-05-15T04:09:21.564Z,7.90
2019-05-15T04:10:21.516Z,7.88
2019-05-15T04:11:21.453Z,7.91
2019-05-15T04:12:21.431Z,7.91
2019-05-15T04:13:21.348Z,7.98
2019-05-15T04:14:21.299Z,8.01
2019-05-15T04:15:21.234Z,7.96
2019-05-15T04:16:21.185Z,8.06
2019-05-15T04:17:21.163Z,8.09
2019-05-15T04:18:21.077Z,8.11
2019-05-15T04:19:21.020Z,8.06
2019-05-15T04:20:20.969Z,8.23
2019-05-15T04:21:20.917Z,8.23
2019-05-15T04:22:20.888Z,8.24
2019-05-15T04:23:20.804Z,8.31
2019-05-15T04:24:20.757Z,8.31
2019-05-15T04:25:20.711Z,8.29
2019-05-15T04:26:20.650Z,8.27
2019-05-15T04:27:22.366Z,8.41
2019-05-15T04:28:20.535Z,8.48
2019-05-15T04:29:20.489Z,8.60
2019-05-15T04:30:20.433Z,8.66
2019-05-15T04:31:20.387Z,8.70
2019-05-15T04:32:20.382Z,8.75
2019-05-15T04:33:20.291Z,8.67
2019-05-15T04:34:20.218Z,8.73
2019-05-15T04:35:20.166Z,8.69
2019-05-15T04:36:20.122Z,8.77
2019-05-15T04:37:20.100Z,8.78
2019-05-15T04:38:20.002Z,8.77
2019-05-15T04:39:19.951Z,8.80
2019-05-15T04:40:19.899Z,8.62
2019-05-15T04:41:20.189Z,8.69
2019-05-15T04:42:20.425Z,8.72
2019-05-15T04:43:19.774Z,8.63
2019-05-15T04:44:19.691Z,8.57
2019-05-15T04:45:19.766Z,8.67
2019-05-15T04:46:19.990Z,8.62
2019-05-15T04:47:19.577Z,8.63
2019-05-15T04:48:20.186Z,8.59
2019-05-15T04:49:19.486Z,8.64
2019-05-15T04:50:19.451Z,8.64
2019-05-15T04:51:19.321Z,8.67
2019-05-15T04:52:19.543Z,8.60
2019-05-15T04:53:19.459Z,8.72
2019-05-15T04:54:20.020Z,8.85
2019-05-15T04:55:19.586Z,8.95
2019-05-15T04:56:19.384Z,8.96
2019-05-15T04:57:19.480Z,9.19
2019-05-15T04:58:20.701Z,9.29
2019-05-15T04:59:19.463Z,9.34
2019-05-15T05:00:19.826Z,9.36
2019-05-15T05:01:20.051Z,9.55
2019-05-15T05:02:26.834Z,9.59
2019-05-15T05:04:50.211Z,9.73
2019-05-15T05:05:50.430Z,9.88
2019-05-15T05:06:50.070Z,9.86
2019-05-15T05:07:50.056Z,9.83
2019-05-15T05:08:49.976Z,9.86
2019-05-15T05:09:49.914Z,9.93
2019-05-15T05:10:49.867Z,10.01
2019-05-15T05:11:49.806Z,10.02
2019-05-15T05:12:50.849Z,10.06
2019-05-15T05:13:49.729Z,10.16
2019-05-15T05:14:49.652Z,10.13
2019-05-15T05:15:50.326Z,10.20
2019-05-15T05:16:49.545Z,10.33
2019-05-15T05:17:49.493Z,10.40
2019-05-15T05:18:49.467Z,10.53
2019-05-15T05:19:51.378Z,10.59
2019-05-15T05:20:49.335Z,10.70
2019-05-15T05:21:49.284Z,10.75
2019-05-15T05:22:49.232Z,10.64
2019-05-15T05:23:49.198Z,10.79
2019-05-15T05:24:49.126Z,10.70
2019-05-15T05:25:49.527Z,10.78
2019-05-15T05:26:49.265Z,10.74
2019-05-15T05:27:48.967Z,10.75
2019-05-15T05:28:49.158Z,10.82
2019-05-15T05:29:48.864Z,10.89
2019-05-15T05:30:48.817Z,10.90
2019-05-15T05:31:49.275Z,10.89
2019-05-15T05:32:48.818Z,10.97
2019-05-15T05:33:48.835Z,11.01
2019-05-15T05:34:48.608Z,11.03
2019-05-15T05:35:48.977Z,11.03
2019-05-15T05:36:48.508Z,11.14
2019-05-15T05:37:48.450Z,11.03
2019-05-15T05:38:49.324Z,10.97
2019-05-15T05:39:48.445Z,11.04
2019-05-15T05:40:49.481Z,11.08
2019-05-15T05:41:48.667Z,11.14
2019-05-15T05:42:48.196Z,11.22
2019-05-15T05:43:48.769Z,11.25
2019-05-15T05:44:48.853Z,11.26
2019-05-15T05:45:49.146Z,11.28
2019-05-15T05:46:48.800Z,11.23
2019-05-15T05:47:48.709Z,11.23
2019-05-15T05:48:48.961Z,11.25
2019-05-15T05:49:48.829Z,11.15
2019-05-15T05:50:49.680Z,11.20
2019-05-15T05:51:48.211Z,11.20
2019-05-15T05:52:49.073Z,11.19
2019-05-15T05:53:48.062Z,11.12
2019-05-15T05:54:49.068Z,11.10
2019-05-15T05:55:49.170Z,11.29
2019-05-15T05:56:48.299Z,11.30
2019-05-15T05:57:48.716Z,11.40
2019-05-15T05:58:49.196Z,11.14
2019-05-15T05:59:48.964Z,11.10
2019-05-15T06:00:48.888Z,11.29
2019-05-15T06:01:48.379Z,11.37
2019-05-15T06:02:51.915Z,11.43
2019-05-15T06:03:49.068Z,11.43
2019-05-15T06:04:47.950Z,11.40
2019-05-15T06:05:49.470Z,11.37
2019-05-15T06:06:50.179Z,11.44
2019-05-15T06:07:48.717Z,11.50
2019-05-15T06:08:48.038Z,11.61
2019-05-15T06:09:48.592Z,11.63
2019-05-15T06:10:49.197Z,11.61
2019-05-15T06:11:48.670Z,11.72
2019-05-15T06:12:48.923Z,11.72
2019-05-15T06:13:51.018Z,11.53
2019-05-15T06:14:48.485Z,11.66
2019-05-15T06:15:48.941Z,11.65
2019-05-15T06:16:48.203Z,11.74
2019-05-15T06:17:48.106Z,11.71
2019-05-15T06:18:48.941Z,11.68
2019-05-15T06:19:48.157Z,11.71
2019-05-15T06:20:46.250Z,11.79
2019-05-15T06:21:54.611Z,11.79
2019-05-15T06:22:47.889Z,11.80
2019-05-15T06:23:53.129Z,11.71
2019-05-15T06:24:48.382Z,11.74
2019-05-15T06:25:48.411Z,11.72
2019-05-15T06:26:48.002Z,11.79
2019-05-15T06:27:48.044Z,11.68
2019-05-15T06:28:48.461Z,11.69
2019-05-15T06:29:45.814Z,11.72
2019-05-15T06:30:45.734Z,11.76
2019-05-15T06:31:45.683Z,11.68
2019-05-15T06:33:02.039Z,11.69
2019-05-15T06:33:45.581Z,11.46
2019-05-15T06:34:45.657Z,11.43
2019-05-15T06:35:45.477Z,11.43
2019-05-15T06:36:45.427Z,11.30
2019-05-15T06:37:45.386Z,11.28
2019-05-15T06:38:45.327Z,11.35
2019-05-15T06:39:45.299Z,11.37
2019-05-15T06:40:45.222Z,11.43
2019-05-15T06:41:45.173Z,11.53
2019-05-15T06:42:45.122Z,11.72
2019-05-15T06:43:45.071Z,11.71
2019-05-15T06:44:45.043Z,11.87
2019-05-15T06:45:44.964Z,12.05
2019-05-15T06:46:44.916Z,12.22
2019-05-15T06:47:44.868Z,12.21
2019-05-15T06:48:44.814Z,12.36
2019-05-15T06:49:44.784Z,12.42
2019-05-15T06:50:44.711Z,12.50
2019-05-15T06:51:44.660Z,12.38
2019-05-15T06:52:44.615Z,12.42
2019-05-15T06:53:44.561Z,12.46
2019-05-15T06:54:44.535Z,12.47
2019-05-15T06:55:44.458Z,12.54
2019-05-15T06:56:44.406Z,12.55
2019-05-15T06:57:44.355Z,12.60
2019-05-15T06:58:44.303Z,12.68
2019-05-15T06:59:44.277Z,12.80
2019-05-15T07:00:44.212Z,12.93
2019-05-15T07:01:44.151Z,12.91
2019-05-15T07:02:44.110Z,12.94
2019-05-15T07:03:44.050Z,12.91
2019-05-15T07:04:44.027Z,12.94
2019-05-15T07:05:43.952Z,12.80
2019-05-15T07:06:43.902Z,12.80
2019-05-15T07:07:43.852Z,12.78
2019-05-15T07:08:43.802Z,12.73
2019-05-15T07:09:43.776Z,12.90
2019-05-15T07:10:43.699Z,12.96
2019-05-15T07:11:43.655Z,12.90
2019-05-15T07:12:43.600Z,12.94
2019-05-15T07:13:43.545Z,12.96
2019-05-15T07:14:43.554Z,12.94
2019-05-15T07:15:43.448Z,12.85
2019-05-15T07:16:43.399Z,12.85
2019-05-15T07:17:43.344Z,12.87
2019-05-15T07:18:43.290Z,12.96
2019-05-15T07:19:43.286Z,13.05
2019-05-15T07:20:43.193Z,13.08
2019-05-15T07:21:43.142Z,13.12
2019-05-15T07:22:43.093Z,13.08
2019-05-15T07:23:43.044Z,13.11
2019-05-15T07:24:43.016Z,13.27
2019-05-15T07:25:42.941Z,13.37
2019-05-15T07:26:42.892Z,13.30
2019-05-15T07:27:42.837Z,13.31
2019-05-15T07:28:42.787Z,13.29
2019-05-15T07:29:42.755Z,13.41
2019-05-15T07:30:42.693Z,13.45
2019-05-15T07:31:42.642Z,13.46
2019-05-15T07:32:42.595Z,13.50
2019-05-15T07:33:43.764Z,13.49
2019-05-15T07:34:42.513Z,13.46
2019-05-15T07:35:42.435Z,13.49
2019-05-15T07:36:42.388Z,13.50
2019-05-15T07:37:42.337Z,13.45
2019-05-15T07:38:42.285Z,13.53
2019-05-15T07:39:42.257Z,13.52
2019-05-15T07:40:42.187Z,13.50
2019-05-15T07:41:42.134Z,13.57
2019-05-15T07:42:42.087Z,13.59
2019-05-15T07:43:42.035Z,13.65
2019-05-15T07:44:42.012Z,13.63
2019-05-15T07:45:44.214Z,13.41
2019-05-15T07:46:41.886Z,13.43
2019-05-15T07:47:41.837Z,13.41
2019-05-15T07:48:43.962Z,13.49
2019-05-15T07:49:41.736Z,13.47
2019-05-15T07:50:41.709Z,13.52
2019-05-15T07:51:41.640Z,13.56
2019-05-15T07:52:41.581Z,13.49
2019-05-15T07:53:41.536Z,13.63
2019-05-15T07:54:41.483Z,13.64
2019-05-15T07:55:41.457Z,13.77
2019-05-15T07:56:41.383Z,13.68
2019-05-15T07:57:41.332Z,13.88
2019-05-15T07:58:41.281Z,13.90
2019-05-15T07:59:41.247Z,13.75
2019-05-15T08:00:41.205Z,13.78
2019-05-15T08:01:41.139Z,13.92
2019-05-15T08:02:41.079Z,13.95
2019-05-15T08:03:55.355Z,13.97
2019-05-15T08:04:40.982Z,13.83
2019-05-15T08:05:55.188Z,13.68
2019-05-15T08:06:40.882Z,13.57
2019-05-15T08:07:40.847Z,13.64
2019-05-15T08:08:40.779Z,13.67
2019-05-15T08:09:40.731Z,13.68
2019-05-15T08:10:40.705Z,13.92
2019-05-15T08:11:40.631Z,13.97
2019-05-15T08:12:40.584Z,13.83
2019-05-15T08:13:40.536Z,13.89
2019-05-15T08:14:40.487Z,13.82
2019-05-15T08:15:40.459Z,13.96
2019-05-15T08:16:40.381Z,13.96
2019-05-15T08:17:58.532Z,14.10
2019-05-15T08:18:40.287Z,14.13
2019-05-15T08:19:40.237Z,14.28
2019-05-15T08:20:40.207Z,14.36
2019-05-15T08:21:40.131Z,14.15
2019-05-15T08:22:40.088Z,14.26
2019-05-15T08:23:40.035Z,14.22
2019-05-15T08:24:39.981Z,14.28
2019-05-15T08:25:40.064Z,14.19
2019-05-15T08:26:44.851Z,14.14
2019-05-15T08:27:39.841Z,14.18
2019-05-15T08:28:39.783Z,14.07
2019-05-15T08:29:39.731Z,14.10
2019-05-15T08:30:39.833Z,14.05
2019-05-15T08:31:39.633Z,14.07
2019-05-15T08:32:39.582Z,14.15
2019-05-15T08:33:39.530Z,14.05
2019-05-15T08:34:39.485Z,13.85
2019-05-15T08:35:39.461Z,13.83
2019-05-15T08:36:39.389Z,13.68
2019-05-15T08:37:39.334Z,13.65
2019-05-15T08:38:39.283Z,13.68
2019-05-15T08:39:39.239Z,13.77
2019-05-15T08:40:41.070Z,13.67
2019-05-15T08:41:39.379Z,13.67
2019-05-15T08:42:41.584Z,13.71
2019-05-15T08:43:39.032Z,13.65
2019-05-15T08:44:38.981Z,13.74
2019-05-15T08:45:39.230Z,13.83
2019-05-15T08:46:38.928Z,13.89
2019-05-15T08:47:38.848Z,13.95
2019-05-15T08:48:38.783Z,13.93
2019-05-15T08:49:41.023Z,14.03
2019-05-15T08:50:39.115Z,14.13
2019-05-15T08:51:38.633Z,14.14
2019-05-15T08:52:39.281Z,14.23
2019-05-15T08:53:38.537Z,14.28
2019-05-15T08:54:38.483Z,14.18
2019-05-15T08:55:39.114Z,14.20
2019-05-15T08:56:39.351Z,14.18
2019-05-15T08:57:38.535Z,14.20
2019-05-15T08:58:38.407Z,14.23
2019-05-15T08:59:38.260Z,14.14
2019-05-15T09:00:40.164Z,14.14
2019-05-15T09:01:38.377Z,14.19
2019-05-15T09:02:38.383Z,14.20
2019-05-15T09:03:38.232Z,14.18
2019-05-15T09:04:38.716Z,14.32
2019-05-15T09:05:38.802Z,14.43
2019-05-15T09:06:41.292Z,14.33
2019-05-15T09:07:38.342Z,14.23
2019-05-15T09:08:39.063Z,14.14
2019-05-15T09:09:38.354Z,14.10
2019-05-15T09:10:38.556Z,14.05
2019-05-15T09:11:38.986Z,14.13
2019-05-15T09:12:38.854Z,14.18
2019-05-15T09:13:42.971Z,14.26
2019-05-15T09:14:38.085Z,14.19
2019-05-15T09:15:39.605Z,14.18
2019-05-15T09:16:38.789Z,14.20
2019-05-15T09:17:39.920Z,14.22
2019-05-15T09:18:39.126Z,14.28
2019-05-15T09:19:38.742Z,14.33
2019-05-15T09:20:38.380Z,14.33
2019-05-15T09:21:38.752Z,14.44
2019-05-15T09:22:38.292Z,14.48
2019-05-15T09:23:38.901Z,14.48
2019-05-15T09:24:37.934Z,14.48
2019-05-15T09:25:38.847Z,14.45
2019-05-15T09:26:40.113Z,14.43
2019-05-15T09:27:38.261Z,14.38
2019-05-15T09:28:39.127Z,14.48
2019-05-15T09:29:38.071Z,14.51
2019-05-15T09:30:38.918Z,14.51
2019-05-15T09:31:38.995Z,14.48
2019-05-15T09:32:38.948Z,14.47
2019-05-15T09:33:38.705Z,14.38
2019-05-15T09:34:48.061Z,14.20
2019-05-15T09:35:36.433Z,14.37
2019-05-15T09:36:36.426Z,14.33
2019-05-15T09:37:38.562Z,14.37
2019-05-15T09:38:38.840Z,14.40
2019-05-15T09:39:38.130Z,14.53
2019-05-15T09:40:45.198Z,14.63
2019-05-15T09:41:38.023Z,14.82
2019-05-15T09:42:38.637Z,15.02
2019-05-15T09:43:38.274Z,15.09
2019-05-15T09:44:35.989Z,15.09
2019-05-15T09:45:37.986Z,15.14
2019-05-15T09:46:38.136Z,15.14
2019-05-15T09:47:39.168Z,15.19
2019-05-15T09:48:35.796Z,15.12
2019-05-15T09:49:35.737Z,15.02
2019-05-15T09:50:35.688Z,15.24
2019-05-15T09:51:38.321Z,14.99
2019-05-15T09:52:35.589Z,15.07
2019-05-15T09:53:35.540Z,14.99
2019-05-15T09:54:38.499Z,15.07
2019-05-15T09:55:37.996Z,14.99
2019-05-15T09:56:35.415Z,15.02
2019-05-15T09:57:35.352Z,14.99
2019-05-15T09:58:35.291Z,15.03
2019-05-15T09:59:35.241Z,15.14
2019-05-15T10:00:35.191Z,15.27
2019-05-15T10:01:35.165Z,15.35
2019-05-15T10:02:35.098Z,15.36
2019-05-15T10:03:35.039Z,15.32
2019-05-15T10:04:34.996Z,15.44
2019-05-15T10:05:34.947Z,15.55
2019-05-15T10:06:34.927Z,15.68
2019-05-15T10:07:34.846Z,15.58
2019-05-15T10:08:34.797Z,15.61
2019-05-15T10:09:34.746Z,15.69
2019-05-15T10:10:34.700Z,15.60
2019-05-15T10:11:34.674Z,15.64
2019-05-15T10:12:35.369Z,15.69
2019-05-15T10:13:34.555Z,15.73
2019-05-15T10:14:34.511Z,15.75
2019-05-15T10:15:34.456Z,15.79
2019-05-15T10:16:34.442Z,15.79
2019-05-15T10:17:34.360Z,15.94
2019-05-15T10:18:34.309Z,15.83
2019-05-15T10:19:34.263Z,15.77
2019-05-15T10:20:34.212Z,15.87
2019-05-15T10:21:34.179Z,15.82
2019-05-15T10:22:34.119Z,15.80
2019-05-15T10:23:34.063Z,15.87
2019-05-15T10:24:34.010Z,15.76
2019-05-15T10:25:33.963Z,15.87
2019-05-15T10:26:33.940Z,15.85
2019-05-15T10:27:33.861Z,15.90
2019-05-15T10:28:33.820Z,15.98
2019-05-15T10:29:33.768Z,16.01
2019-05-15T10:30:33.719Z,15.91
2019-05-15T10:31:33.699Z,15.98
2019-05-15T10:32:33.648Z,16.01
2019-05-15T10:33:33.574Z,15.88
2019-05-15T10:34:33.623Z,15.64
2019-05-15T10:35:33.474Z,15.54
2019-05-15T10:36:33.426Z,15.55
2019-05-15T10:37:33.404Z,15.42
2019-05-15T10:38:33.326Z,15.32
2019-05-15T10:39:33.280Z,15.36
2019-05-15T10:40:33.230Z,15.35
2019-05-15T10:41:33.181Z,15.57
2019-05-15T10:42:33.160Z,15.46
2019-05-15T10:43:33.083Z,15.35
2019-05-15T10:44:33.039Z,15.25
2019-05-15T10:45:32.992Z,15.30
2019-05-15T10:46:32.942Z,15.27
2019-05-15T10:47:32.908Z,15.17
2019-05-15T10:48:32.921Z,14.99
2019-05-15T10:49:32.791Z,14.96
2019-05-15T10:50:32.743Z,15.04
2019-05-15T10:51:32.691Z,15.18
2019-05-15T10:52:32.670Z,15.24
2019-05-15T10:53:32.595Z,15.21
2019-05-15T10:54:32.546Z,15.25
2019-05-15T10:55:32.500Z,15.33
2019-05-15T10:56:41.473Z,15.44
2019-05-15T10:57:32.427Z,15.39
2019-05-15T10:58:32.411Z,15.37
2019-05-15T10:59:32.297Z,15.46
2019-05-15T11:00:32.250Z,15.55
2019-05-15T11:01:32.195Z,15.40
2019-05-15T11:02:32.193Z,15.52
2019-05-15T11:03:34.880Z,15.55
2019-05-15T11:04:32.047Z,15.48
2019-05-15T11:05:44.643Z,15.33
2019-05-15T11:06:31.953Z,15.07
2019-05-15T11:07:31.927Z,15.14
2019-05-15T11:08:32.005Z,15.15
2019-05-15T11:09:31.813Z,15.21
2019-05-15T11:10:31.765Z,15.18
2019-05-15T11:11:31.707Z,15.14
2019-05-15T11:12:31.684Z,15.15
2019-05-15T11:13:31.610Z,15.18
2019-05-15T11:14:31.555Z,15.32
2019-05-15T11:15:31.513Z,15.39
2019-05-15T11:16:31.459Z,15.46
2019-05-15T11:17:31.696Z,15.51
2019-05-15T11:18:31.369Z,15.55
2019-05-15T11:19:35.910Z,15.33
2019-05-15T11:20:31.261Z,15.28
2019-05-15T11:21:31.222Z,15.36
2019-05-15T11:22:31.190Z,15.18
2019-05-15T11:23:31.115Z,15.15
2019-05-15T11:24:32.378Z,15.22
2019-05-15T11:25:31.020Z,15.33
2019-05-15T11:26:33.611Z,15.32
2019-05-15T11:27:31.282Z,15.39
2019-05-15T11:28:32.348Z,15.40
2019-05-15T11:29:30.819Z,15.48
2019-05-15T11:30:30.771Z,15.55
2019-05-15T11:31:30.739Z,15.58
2019-05-15T11:32:30.695Z,15.58
2019-05-15T11:33:30.623Z,15.70
2019-05-15T11:34:30.575Z,15.61
2019-05-15T11:35:30.523Z,15.65
2019-05-15T11:36:30.471Z,15.76
2019-05-15T11:37:30.447Z,15.77
2019-05-15T11:38:30.375Z,15.70
2019-05-15T11:39:30.390Z,15.70
2019-05-15T11:40:30.279Z,15.54
2019-05-15T11:41:30.227Z,15.57
2019-05-15T11:42:30.203Z,15.57
2019-05-15T11:43:30.156Z,15.54
2019-05-15T11:44:30.084Z,15.60
2019-05-15T11:45:30.029Z,15.62
2019-05-15T11:46:29.982Z,15.77
2019-05-15T11:47:29.936Z,15.77
2019-05-15T11:48:30.215Z,15.88
2019-05-15T11:49:29.833Z,15.80
2019-05-15T11:50:29.786Z,15.57
2019-05-15T11:51:29.743Z,15.54
2019-05-15T11:52:29.688Z,15.35
2019-05-15T11:53:29.666Z,15.25
2019-05-15T11:54:29.591Z,15.25
2019-05-15T11:55:29.536Z,15.19
2019-05-15T11:56:29.750Z,15.15
2019-05-15T11:57:39.514Z,15.24
2019-05-15T11:58:29.413Z,15.28
2019-05-15T11:59:30.136Z,15.40
2019-05-15T12:00:30.285Z,15.42
2019-05-15T12:01:29.243Z,15.33
2019-05-15T12:02:29.463Z,15.36
2019-05-15T12:03:29.331Z,15.37
2019-05-15T12:04:33.829Z,15.43
2019-05-15T12:05:29.048Z,15.50
2019-05-15T12:06:29.356Z,15.60
2019-05-15T12:07:29.172Z,15.69
2019-05-15T12:08:29.501Z,15.92
2019-05-15T12:09:28.854Z,15.87
2019-05-15T12:10:29.065Z,15.85
2019-05-15T12:11:36.635Z,15.82
2019-05-15T12:12:31.805Z,15.76
2019-05-15T12:13:28.685Z,15.62
2019-05-15T12:14:29.639Z,15.48
2019-05-15T12:15:28.544Z,15.42
2019-05-15T12:16:29.018Z,15.25
2019-05-15T12:17:28.624Z,15.19
2019-05-15T12:18:28.647Z,15.14
2019-05-15T12:19:29.179Z,15.21
2019-05-15T12:20:28.710Z,15.19
2019-05-15T12:21:28.657Z,15.14
2019-05-15T12:22:28.964Z,15.15
2019-05-15T12:23:29.127Z,15.19
2019-05-15T12:24:35.050Z,15.18
2019-05-15T12:25:31.582Z,15.22
2019-05-15T12:26:29.162Z,15.28
2019-05-15T12:27:28.391Z,15.32
2019-05-15T12:28:29.594Z,15.40
2019-05-15T12:29:28.541Z,15.35
2019-05-15T12:30:29.552Z,15.35
2019-05-15T12:31:27.764Z,15.33
2019-05-15T12:32:33.349Z,15.36
2019-05-15T12:33:28.911Z,15.28
2019-05-15T12:34:28.995Z,15.37
2019-05-15T12:35:29.516Z,15.33
2019-05-15T12:37:28.483Z,15.17
2019-05-15T12:38:28.929Z,15.14
2019-05-15T12:39:26.021Z,15.22
2019-05-15T12:39:30.379Z,15.07
2019-05-15T12:59:42.440Z,15.14
2019-05-15T13:00:29.635Z,15.19
2019-05-15T13:01:26.277Z,15.22
2019-05-15T13:02:28.052Z,15.32
2019-05-15T13:03:26.174Z,15.33
2019-05-15T13:04:28.299Z,15.44
2019-05-15T13:05:28.545Z,15.65
2019-05-15T13:06:28.306Z,15.69
2019-05-15T13:07:25.982Z,15.73
2019-05-15T13:08:28.787Z,15.77
2019-05-15T13:09:27.783Z,15.87
2019-05-15T13:10:25.826Z,15.79
2019-05-15T13:11:25.775Z,15.77
2019-05-15T13:12:25.723Z,15.69
2019-05-15T13:13:25.681Z,15.75
2019-05-15T13:14:28.186Z,15.75
2019-05-15T13:15:28.058Z,15.68
2019-05-15T13:16:28.001Z,15.62
2019-05-15T13:17:25.485Z,15.54
2019-05-15T13:18:25.430Z,15.68
2019-05-15T13:19:28.254Z,15.57
2019-05-15T13:20:25.342Z,15.61
2019-05-15T13:21:25.284Z,15.58
2019-05-15T13:22:25.240Z,15.68